createdAt,value
2022-11-06T00:00:49.562Z,13.02
2022-11-06T00:03:17.788Z,12.73
2022-11-06T00:06:03.426Z,13.45
2022-11-06T00:08:33.886Z,12.98
2022-11-06T00:11:02.717Z,13.07
2022-11-06T00:13:32.508Z,13.23
2022-11-06T00:16:04.789Z,12.70
2022-11-06T00:18:33.207Z,12.93
2022-11-06T00:21:01.387Z,11.65
2022-11-06T00:23:29.590Z,13.65
2022-11-06T00:25:57.779Z,12.93
2022-11-06T00:28:26.030Z,12.57
2022-11-06T00:31:03.748Z,13.43
2022-11-06T00:33:32.354Z,12.52
2022-11-06T00:36:03.360Z,13.65
2022-11-06T00:38:31.796Z,11.93
2022-11-06T00:41:04.795Z,12.60
2022-11-06T00:43:33.731Z,11.73
2022-11-06T00:46:08.088Z,12.20
2022-11-06T00:48:37.394Z,12.18
2022-11-06T00:51:06.519Z,12.68
2022-11-06T00:53:35.015Z,12.90
2022-11-06T00:56:07.769Z,12.57
2022-11-06T00:58:36.359Z,11.88
2022-11-06T01:01:10.879Z,12.13
2022-11-06T01:03:39.710Z,12.10
2022-11-06T01:06:09.248Z,13.07
2022-11-06T01:08:38.239Z,12.27
2022-11-06T01:11:13.805Z,12.07
2022-11-06T01:13:42.319Z,12.35
2022-11-06T01:16:16.499Z,12.80
2022-11-06T01:18:45.730Z,12.25
2022-11-06T01:21:16.176Z,12.20
2022-11-06T01:23:45.124Z,12.10
2022-11-06T01:26:21.191Z,13.15
2022-11-06T01:28:57.939Z,13.18
2022-11-06T01:31:29.641Z,13.50
2022-11-06T01:33:59.198Z,12.98
2022-11-06T01:36:28.058Z,13.43
2022-11-06T01:38:58.640Z,13.30
2022-11-06T01:41:29.417Z,14.15
2022-11-06T01:43:59.578Z,14.10
2022-11-06T01:46:30.821Z,14.23
2022-11-06T01:49:06.690Z,14.60
2022-11-06T01:51:42.974Z,13.90
2022-11-06T01:54:12.694Z,13.60
2022-11-06T01:56:42.562Z,14.07
2022-11-06T01:59:14.455Z,14.63
2022-11-06T02:01:44.439Z,13.85
2022-11-06T02:04:16.739Z,13.43
2022-11-06T02:06:46.385Z,14.15
2022-11-06T02:09:14.851Z,14.20
2022-11-06T02:11:45.401Z,14.07
2022-11-06T02:14:20.828Z,15.05
2022-11-06T02:16:55.863Z,14.50
2022-11-06T02:19:44.972Z,16.00
2022-11-06T02:22:25.781Z,14.82
2022-11-06T02:25:16.644Z,14.50
2022-11-06T02:27:49.539Z,15.00
2022-11-06T02:30:19.169Z,15.50
2022-11-06T02:32:54.834Z,16.60
2022-11-06T02:35:27.879Z,16.15
2022-11-06T02:38:00.198Z,15.57
2022-11-06T02:40:33.638Z,15.60
2022-11-06T02:43:07.412Z,15.85
2022-11-06T02:45:42.692Z,15.15
2022-11-06T02:48:13.848Z,16.08
2022-11-06T02:50:45.646Z,15.57
2022-11-06T02:53:16.576Z,15.75
2022-11-06T02:55:49.480Z,16.15
2022-11-06T02:58:22.804Z,15.75
2022-11-06T03:00:58.965Z,15.70
2022-11-06T03:03:31.496Z,16.73
2022-11-06T03:06:05.548Z,16.73
2022-11-06T03:08:37.919Z,16.95
2022-11-06T03:11:13.708Z,18.13
2022-11-06T03:13:53.903Z,18.08
2022-11-06T03:16:32.409Z,18.58
2022-11-06T03:19:08.064Z,19.35
2022-11-06T03:21:44.413Z,20.33
2022-11-06T03:24:17.652Z,18.88
2022-11-06T03:26:49.960Z,20.98
2022-11-06T03:29:22.875Z,19.60
2022-11-06T03:31:54.844Z,19.25
2022-11-06T03:34:30.956Z,19.58
2022-11-06T03:37:05.228Z,18.60
2022-11-06T03:39:37.645Z,18.45
2022-11-06T03:42:08.703Z,18.73
2022-11-06T03:44:41.970Z,17.85
2022-11-06T03:47:14.254Z,18.20
2022-11-06T03:49:47.024Z,18.75
2022-11-06T03:52:20.497Z,17.88
2022-11-06T03:54:54.646Z,18.75
2022-11-06T03:57:28.306Z,17.80
2022-11-06T04:00:02.324Z,18.45
2022-11-06T04:02:43.980Z,17.67
2022-11-06T04:05:17.308Z,17.25
2022-11-06T04:08:09.742Z,18.45
2022-11-06T04:11:00.804Z,19.40
2022-11-06T04:13:50.541Z,19.65
2022-11-06T04:16:20.957Z,19.50
2022-11-06T04:18:49.131Z,20.00
2022-11-06T04:21:26.054Z,18.60
2022-11-06T04:24:33.206Z,19.08
2022-11-06T04:27:30.588Z,19.30
2022-11-06T04:30:07.299Z,18.58
2022-11-06T04:32:59.626Z,19.92
2022-11-06T04:35:35.471Z,21.67
2022-11-06T04:38:09.012Z,20.80
2022-11-06T04:40:48.281Z,20.23
2022-11-06T04:43:24.495Z,20.50
2022-11-06T04:45:57.068Z,21.08
2022-11-06T04:48:27.049Z,19.55
2022-11-06T04:51:00.524Z,21.70
2022-11-06T04:53:30.863Z,21.10
2022-11-06T04:56:06.930Z,21.00
2022-11-06T04:58:35.248Z,18.80
2022-11-06T05:01:03.491Z,18.70
2022-11-06T05:03:33.193Z,18.58
2022-11-06T05:06:01.411Z,19.67
2022-11-06T05:08:29.670Z,18.80
2022-11-06T05:10:57.784Z,17.02
2022-11-06T05:13:26.012Z,18.45
2022-11-06T05:15:57.193Z,19.63
2022-11-06T05:18:25.883Z,18.95
2022-11-06T05:21:15.799Z,19.25
2022-11-06T05:23:43.072Z,18.13
2022-11-06T05:26:11.262Z,17.85
2022-11-06T05:28:39.538Z,17.35
2022-11-06T05:31:07.755Z,17.73
2022-11-06T05:33:35.974Z,17.35
2022-11-06T05:36:06.788Z,19.38
2022-11-06T05:38:35.197Z,18.85
2022-11-06T05:41:03.376Z,17.50
2022-11-06T05:43:31.636Z,19.15
2022-11-06T05:46:00.602Z,19.42
2022-11-06T05:48:29.190Z,18.67
2022-11-06T05:51:02.316Z,18.38
2022-11-06T05:53:34.046Z,18.63
2022-11-06T05:56:02.624Z,18.63
2022-11-06T05:58:30.849Z,17.90
2022-11-06T06:00:59.647Z,17.48
2022-11-06T06:03:28.116Z,16.85
2022-11-06T06:05:56.550Z,16.60
2022-11-06T06:08:24.690Z,15.48
2022-11-06T06:10:54.308Z,15.27
2022-11-06T06:13:22.513Z,14.75
2022-11-06T06:15:50.722Z,15.38
2022-11-06T06:18:18.862Z,15.10
2022-11-06T06:20:47.337Z,16.23
2022-11-06T06:23:15.469Z,15.30
2022-11-06T06:25:43.756Z,15.05
2022-11-06T06:28:13.494Z,15.82
2022-11-06T06:30:42.106Z,15.90
2022-11-06T06:33:10.267Z,16.83
2022-11-06T06:35:38.504Z,17.20
2022-11-06T06:38:06.636Z,16.42
2022-11-06T06:40:34.982Z,15.95
2022-11-06T06:43:03.254Z,16.17
2022-11-06T06:45:33.252Z,16.70
2022-11-06T06:48:04.345Z,15.40
2022-11-06T06:50:33.033Z,14.82
2022-11-06T06:53:01.343Z,14.93
2022-11-06T06:55:29.686Z,15.75
2022-11-06T06:57:58.923Z,16.20
2022-11-06T07:00:27.834Z,16.85
2022-11-06T07:02:57.375Z,15.18
2022-11-06T07:05:25.990Z,14.25
2022-11-06T07:07:54.155Z,15.18
2022-11-06T07:10:22.350Z,13.70
2022-11-06T07:12:50.519Z,14.20
2022-11-06T07:15:18.844Z,14.75
2022-11-06T07:17:47.086Z,13.65
2022-11-06T07:20:16.674Z,12.57
2022-11-06T07:22:44.830Z,12.77
2022-11-06T07:25:13.258Z,13.85
2022-11-06T07:27:41.497Z,15.18
2022-11-06T07:30:10.795Z,14.95
2022-11-06T07:32:39.021Z,14.02
2022-11-06T07:35:08.190Z,14.52
2022-11-06T07:37:38.284Z,14.05
2022-11-06T07:40:08.947Z,12.65
2022-11-06T07:42:42.275Z,12.43
2022-11-06T07:45:15.776Z,11.10
2022-11-06T07:47:43.990Z,11.27
2022-11-06T07:50:12.146Z,10.63
2022-11-06T07:52:41.847Z,11.82
2022-11-06T07:55:10.800Z,11.88
2022-11-06T07:57:39.097Z,11.38
2022-11-06T08:00:08.709Z,11.75
2022-11-06T08:02:45.073Z,12.05
2022-11-06T08:05:13.371Z,11.57
2022-11-06T08:07:42.951Z,11.63
2022-11-06T08:10:11.478Z,11.57
2022-11-06T08:12:39.666Z,12.43
2022-11-06T08:15:08.595Z,12.93
2022-11-06T08:17:37.563Z,12.85
2022-11-06T08:20:06.862Z,12.63
2022-11-06T08:22:35.041Z,12.38
2022-11-06T08:25:04.867Z,12.68
2022-11-06T08:27:33.283Z,11.35
2022-11-06T08:30:01.538Z,12.45
2022-11-06T08:32:29.847Z,12.85
2022-11-06T08:34:58.086Z,12.00
2022-11-06T08:37:26.241Z,11.80
2022-11-06T08:39:54.497Z,11.35
2022-11-06T08:42:24.317Z,11.57
2022-11-06T08:44:52.516Z,12.65
2022-11-06T08:47:20.706Z,11.50
2022-11-06T08:49:49.054Z,12.07
2022-11-06T08:52:17.200Z,12.95
2022-11-06T08:54:45.419Z,11.82
2022-11-06T08:57:13.691Z,11.57
2022-11-06T08:59:43.285Z,11.57
2022-11-06T09:02:13.636Z,11.93
2022-11-06T09:04:42.027Z,11.45
2022-11-06T09:07:10.444Z,11.10
2022-11-06T09:09:38.769Z,12.60
2022-11-06T09:12:07.935Z,11.50
2022-11-06T09:14:36.695Z,12.27
2022-11-06T09:17:06.208Z,11.35
2022-11-06T09:19:34.553Z,11.93
2022-11-06T09:22:02.776Z,11.90
2022-11-06T09:24:50.054Z,11.60
2022-11-06T09:27:19.313Z,10.63
2022-11-06T09:29:48.978Z,10.55
2022-11-06T09:32:18.544Z,10.52
2022-11-06T09:34:46.916Z,11.52
2022-11-06T09:37:15.168Z,11.93
2022-11-06T09:39:43.308Z,11.80
2022-11-06T09:42:21.564Z,12.05
2022-11-06T09:45:04.338Z,12.27
2022-11-06T09:47:39.012Z,12.27
2022-11-06T09:50:13.512Z,11.57
2022-11-06T09:52:46.902Z,10.82
2022-11-06T09:55:20.402Z,10.63
2022-11-06T09:57:52.713Z,10.88
2022-11-06T10:00:21.274Z,10.50
2022-11-06T10:02:54.921Z,10.15
2022-11-06T10:05:27.387Z,10.13
2022-11-06T10:07:58.246Z,11.20
2022-11-06T10:10:32.104Z,11.45
2022-11-06T10:13:20.390Z,11.25
2022-11-06T10:15:55.743Z,11.13
2022-11-06T10:18:38.960Z,10.60
2022-11-06T10:21:12.598Z,10.70
2022-11-06T10:23:48.088Z,10.68
2022-11-06T10:26:18.887Z,10.27
2022-11-06T10:29:12.379Z,10.50
2022-11-06T10:31:48.537Z,9.57
2022-11-06T10:34:22.889Z,9.32
2022-11-06T10:36:55.503Z,10.23
2022-11-06T10:39:26.208Z,10.15
2022-11-06T10:42:00.007Z,9.75
2022-11-06T10:44:34.111Z,9.43
2022-11-06T10:47:07.417Z,9.93
2022-11-06T10:49:42.837Z,9.55
2022-11-06T10:52:25.577Z,10.43
2022-11-06T10:55:04.290Z,10.35
2022-11-06T10:57:42.117Z,10.00
2022-11-06T11:00:13.733Z,9.82
2022-11-06T11:02:47.494Z,10.05
2022-11-06T11:05:21.442Z,10.32
2022-11-06T11:07:51.967Z,10.35
2022-11-06T11:10:31.693Z,8.75
2022-11-06T11:13:07.934Z,9.32
2022-11-06T11:15:44.719Z,9.82
2022-11-06T11:18:23.120Z,9.52
2022-11-06T11:21:04.877Z,10.52
2022-11-06T11:23:33.199Z,10.77
2022-11-06T11:26:20.082Z,10.77
2022-11-06T11:28:55.414Z,11.05
2022-11-06T11:31:32.346Z,12.63
2022-11-06T11:34:04.003Z,11.23
2022-11-06T11:36:52.366Z,12.15
2022-11-06T11:39:23.384Z,12.27
2022-11-06T11:41:51.794Z,12.70
2022-11-06T11:44:21.345Z,11.90
2022-11-06T11:46:51.358Z,12.18
2022-11-06T11:49:31.033Z,12.95
2022-11-06T11:52:02.700Z,12.63
2022-11-06T11:54:33.420Z,12.75
2022-11-06T11:57:05.169Z,11.90
2022-11-06T11:59:40.416Z,11.52
2022-11-06T12:02:23.588Z,12.18
2022-11-06T12:04:57.266Z,12.15
2022-11-06T12:07:30.368Z,10.55
2022-11-06T12:09:59.833Z,11.40
2022-11-06T12:12:32.068Z,11.38
2022-11-06T12:15:18.733Z,11.70
2022-11-06T12:17:51.801Z,10.00
2022-11-06T12:20:25.509Z,9.50
2022-11-06T12:22:57.247Z,9.27
2022-11-06T12:25:28.644Z,8.35
2022-11-06T12:28:00.220Z,10.02
2022-11-06T12:30:29.947Z,10.43
2022-11-06T12:33:05.422Z,10.95
2022-11-06T12:35:38.697Z,9.63
2022-11-06T12:38:19.204Z,9.32
2022-11-06T12:40:52.050Z,9.48
2022-11-06T12:43:28.386Z,8.55
2022-11-06T12:46:10.157Z,9.20
2022-11-06T12:49:03.565Z,9.57
2022-11-06T12:51:39.892Z,8.88
2022-11-06T12:54:24.957Z,8.50
2022-11-06T12:57:02.648Z,8.38
2022-11-06T12:59:45.559Z,8.40
2022-11-06T13:02:26.268Z,6.32
2022-11-06T13:05:02.626Z,5.03
2022-11-06T13:07:49.249Z,5.05
2022-11-06T13:10:31.952Z,4.55
2022-11-06T13:13:18.640Z,4.13
2022-11-06T13:15:54.238Z,6.40
2022-11-06T13:18:26.855Z,7.32
2022-11-06T13:21:00.631Z,7.15
2022-11-06T13:23:33.665Z,8.05
2022-11-06T13:26:09.516Z,6.75
2022-11-06T13:28:42.534Z,6.35
2022-11-06T13:31:14.405Z,7.18
2022-11-06T13:33:48.035Z,7.82
2022-11-06T13:36:17.113Z,6.60
2022-11-06T13:38:52.637Z,6.65
2022-11-06T13:41:26.401Z,6.85
2022-11-06T13:43:59.939Z,7.22
2022-11-06T13:46:37.038Z,7.40
2022-11-06T13:49:19.515Z,7.70
2022-11-06T13:51:53.952Z,7.80
2022-11-06T13:54:36.203Z,7.55
2022-11-06T13:57:49.744Z,6.40
2022-11-06T14:00:28.014Z,8.05
2022-11-06T14:03:20.082Z,7.60
2022-11-06T14:05:55.614Z,7.68
2022-11-06T14:08:29.046Z,7.85
2022-11-06T14:11:01.188Z,7.30
2022-11-06T14:13:34.369Z,8.07
2022-11-06T14:16:25.395Z,8.82
2022-11-06T14:18:59.495Z,8.45
2022-11-06T14:21:50.706Z,8.27
2022-11-06T14:24:34.763Z,9.25
2022-11-06T14:27:06.763Z,9.35
2022-11-06T14:30:05.541Z,10.45
2022-11-06T14:32:37.048Z,10.95
2022-11-06T14:35:51.275Z,10.20
2022-11-06T14:38:37.578Z,10.20
2022-11-06T14:41:49.228Z,10.52
2022-11-06T14:44:29.281Z,9.88
2022-11-06T14:47:02.274Z,9.90
2022-11-06T14:49:37.676Z,10.20
2022-11-06T14:52:09.192Z,10.05
2022-11-06T14:54:41.530Z,9.77
2022-11-06T14:57:13.986Z,9.18
2022-11-06T14:59:43.168Z,9.68
2022-11-06T15:02:20.524Z,9.70
2022-11-06T15:04:54.511Z,9.85
2022-11-06T15:08:03.345Z,10.73
2022-11-06T15:10:53.852Z,9.40
2022-11-06T15:13:30.022Z,10.32
2022-11-06T15:16:13.439Z,10.88
2022-11-06T15:18:46.161Z,10.15
2022-11-06T15:21:23.230Z,9.70
2022-11-06T15:24:05.390Z,10.98
2022-11-06T15:26:38.991Z,9.77
2022-11-06T15:29:19.077Z,11.02
2022-11-06T15:31:51.001Z,10.88
2022-11-06T15:34:24.908Z,11.68
2022-11-06T15:36:56.489Z,11.88
2022-11-06T15:39:39.599Z,12.40
2022-11-06T15:42:15.135Z,12.80
2022-11-06T15:44:45.043Z,14.30
2022-11-06T15:47:22.696Z,14.13
2022-11-06T15:50:09.746Z,12.63
2022-11-06T15:52:38.221Z,13.63
2022-11-06T15:55:07.241Z,15.48
2022-11-06T15:57:35.645Z,15.65
2022-11-06T16:00:12.451Z,15.10
2022-11-06T16:02:51.592Z,16.17
2022-11-06T16:05:22.984Z,15.90
2022-11-06T16:07:52.300Z,15.43
2022-11-06T16:10:22.032Z,15.30
2022-11-06T16:12:51.338Z,16.67
2022-11-06T16:15:51.732Z,17.30
2022-11-06T16:18:25.242Z,16.55
2022-11-06T16:20:58.875Z,16.98
2022-11-06T16:23:37.770Z,16.88
2022-11-06T16:26:10.005Z,15.98
2022-11-06T16:28:44.030Z,16.98
2022-11-06T16:31:17.031Z,16.42
2022-11-06T16:33:56.249Z,16.40
2022-11-06T16:36:27.571Z,15.15
2022-11-06T16:39:16.249Z,16.45
2022-11-06T16:42:03.367Z,16.20
2022-11-06T16:44:49.360Z,15.95
2022-11-06T16:47:19.438Z,14.93
2022-11-06T16:49:53.716Z,14.43
2022-11-06T16:52:30.281Z,15.52
2022-11-06T16:55:02.066Z,16.92
2022-11-06T16:57:33.338Z,16.88
2022-11-06T17:00:05.480Z,16.90
2022-11-06T17:02:37.435Z,17.15
2022-11-06T17:05:11.619Z,18.15
2022-11-06T17:07:42.320Z,17.15
2022-11-06T17:10:40.466Z,17.73
2022-11-06T17:13:17.769Z,18.40
2022-11-06T17:15:48.399Z,18.95
2022-11-06T17:18:20.784Z,18.08
2022-11-06T17:20:52.746Z,19.55
2022-11-06T17:23:22.897Z,18.15
2022-11-06T17:25:52.536Z,18.92
2022-11-06T17:28:22.876Z,19.50
2022-11-06T17:30:51.411Z,19.30
2022-11-06T17:33:20.045Z,20.00
2022-11-06T17:35:49.333Z,19.50
2022-11-06T17:38:18.481Z,19.13
2022-11-06T17:40:48.472Z,18.10
2022-11-06T17:43:17.186Z,17.60
2022-11-06T17:45:48.092Z,19.33
2022-11-06T17:48:16.589Z,18.17
2022-11-06T17:51:02.077Z,17.75
2022-11-06T17:53:30.305Z,17.63
2022-11-06T17:56:03.079Z,16.48
2022-11-06T17:58:34.331Z,16.58
2022-11-06T18:01:07.282Z,16.23
2022-11-06T18:03:36.910Z,15.57
2022-11-06T18:06:07.403Z,15.93
2022-11-06T18:08:35.639Z,16.02
2022-11-06T18:11:05.228Z,14.30
2022-11-06T18:13:33.760Z,14.52
2022-11-06T18:16:02.246Z,14.98
2022-11-06T18:18:30.542Z,16.05
2022-11-06T18:21:00.577Z,16.38
2022-11-06T18:23:28.957Z,15.35
2022-11-06T18:25:58.110Z,17.23
2022-11-06T18:28:27.676Z,18.50
2022-11-06T18:30:55.916Z,19.20
2022-11-06T18:33:26.811Z,19.88
2022-11-06T18:35:54.932Z,20.02
2022-11-06T18:38:23.217Z,22.42
2022-11-06T18:40:54.001Z,21.90
2022-11-06T18:43:22.229Z,24.42
2022-11-06T18:45:52.343Z,25.60
2022-11-06T18:48:21.898Z,27.27
2022-11-06T18:50:50.361Z,27.88
2022-11-06T18:53:18.659Z,27.95
2022-11-06T18:55:51.403Z,29.67
2022-11-06T18:58:20.165Z,28.52
2022-11-06T19:00:48.314Z,31.25
2022-11-06T19:03:18.002Z,30.15
2022-11-06T19:05:51.039Z,32.03
2022-11-06T19:08:20.972Z,33.30
2022-11-06T19:10:51.591Z,33.60
2022-11-06T19:13:20.044Z,36.08
2022-11-06T19:15:51.191Z,36.22
2022-11-06T19:18:20.844Z,35.28
2022-11-06T19:20:54.371Z,35.97
2022-11-06T19:23:22.740Z,37.83
2022-11-06T19:26:10.330Z,38.38
2022-11-06T19:28:39.408Z,40.55
2022-11-06T19:31:07.847Z,38.70
2022-11-06T19:33:37.698Z,41.33
2022-11-06T19:36:06.877Z,40.80
2022-11-06T19:38:37.206Z,42.20
2022-11-06T19:41:05.939Z,41.60
2022-11-06T19:43:38.239Z,42.30
2022-11-06T19:46:08.358Z,42.85
2022-11-06T19:48:41.598Z,55.25
2022-11-06T19:51:11.608Z,45.42
2022-11-06T19:53:41.999Z,42.75
2022-11-06T19:56:16.477Z,41.28
2022-11-06T19:58:44.888Z,39.22
2022-11-06T20:01:16.509Z,37.78
2022-11-06T20:03:46.356Z,38.63
2022-11-06T20:06:15.406Z,36.70
2022-11-06T20:08:48.109Z,36.97
2022-11-06T20:11:16.584Z,35.50
2022-11-06T20:13:46.283Z,33.15
2022-11-06T20:16:16.527Z,30.40
2022-11-06T20:18:50.920Z,30.58
2022-11-06T20:21:19.459Z,28.90
2022-11-06T20:23:47.727Z,39.88
2022-11-06T20:26:16.867Z,38.63
2022-11-06T20:28:46.870Z,38.40
2022-11-06T20:31:18.582Z,41.28
2022-11-06T20:33:48.835Z,37.97
2022-11-06T20:36:20.558Z,38.38
2022-11-06T20:38:48.940Z,39.17
2022-11-06T20:41:18.305Z,37.10
2022-11-06T20:43:47.213Z,36.00
2022-11-06T20:46:16.885Z,35.08
2022-11-06T20:48:46.075Z,35.63
2022-11-06T20:51:17.771Z,35.22
2022-11-06T20:53:46.567Z,34.80
2022-11-06T20:56:17.642Z,34.70
2022-11-06T20:58:46.442Z,33.30
2022-11-06T21:01:18.384Z,33.28
2022-11-06T21:03:48.450Z,32.28
2022-11-06T21:06:18.904Z,33.08
2022-11-06T21:08:47.418Z,31.63
2022-11-06T21:11:18.055Z,33.00
2022-11-06T21:13:48.198Z,32.45
2022-11-06T21:16:18.642Z,34.53
2022-11-06T21:18:48.527Z,30.05
2022-11-06T21:21:22.459Z,28.98
2022-11-06T21:23:51.605Z,30.40
2022-11-06T21:26:21.316Z,28.40
2022-11-06T21:28:50.093Z,29.08
2022-11-06T21:31:20.504Z,27.77
2022-11-06T21:33:50.366Z,28.13
2022-11-06T21:36:21.895Z,27.60
2022-11-06T21:38:52.989Z,28.58
2022-11-06T21:41:23.287Z,28.00
2022-11-06T21:43:51.443Z,26.65
2022-11-06T21:46:21.081Z,29.00
2022-11-06T21:48:50.319Z,28.67
2022-11-06T21:51:21.991Z,28.08
2022-11-06T21:54:07.873Z,27.95
2022-11-06T21:56:38.261Z,26.73
2022-11-06T21:59:08.863Z,25.15
2022-11-06T22:01:37.889Z,26.40
2022-11-06T22:04:07.342Z,25.13
2022-11-06T22:06:37.039Z,25.70
2022-11-06T22:09:06.908Z,26.35
2022-11-06T22:11:38.526Z,24.88
2022-11-06T22:14:09.000Z,26.42
2022-11-06T22:16:39.273Z,28.10
2022-11-06T22:19:08.811Z,29.63
2022-11-06T22:21:40.104Z,27.63
2022-11-06T22:24:12.325Z,27.50
2022-11-06T22:26:40.865Z,27.60
2022-11-06T22:29:14.693Z,27.80
2022-11-06T22:31:43.035Z,29.33
2022-11-06T22:34:14.470Z,28.17
2022-11-06T22:36:44.102Z,28.38
2022-11-06T22:39:15.245Z,27.87
2022-11-06T22:41:43.522Z,27.47
2022-11-06T22:44:12.673Z,28.67
2022-11-06T22:46:41.419Z,28.15
2022-11-06T22:49:09.746Z,30.20
2022-11-06T22:51:38.321Z,28.50
2022-11-06T22:54:07.917Z,28.67
2022-11-06T22:56:36.229Z,27.77
2022-11-06T22:59:07.813Z,28.83
2022-11-06T23:01:41.967Z,30.20
2022-11-06T23:04:15.804Z,29.42
2022-11-06T23:06:47.206Z,30.10
2022-11-06T23:09:17.058Z,28.63
2022-11-06T23:11:49.174Z,27.75
2022-11-06T23:14:19.949Z,29.43
2022-11-06T23:17:00.909Z,29.37
2022-11-06T23:19:31.945Z,28.07
2022-11-06T23:22:18.086Z,27.53
2022-11-06T23:24:47.679Z,27.43
2022-11-06T23:27:16.095Z,27.30
2022-11-06T23:29:44.323Z,28.03
2022-11-06T23:32:12.646Z,28.23
2022-11-06T23:34:43.871Z,27.90
2022-11-06T23:37:12.086Z,29.90
2022-11-06T23:39:40.363Z,28.47
2022-11-06T23:42:15.483Z,29.10
2022-11-06T23:45:01.575Z,27.43
2022-11-06T23:47:31.101Z,29.27
2022-11-06T23:50:00.766Z,26.60
2022-11-06T23:52:29.380Z,28.98
2022-11-06T23:55:01.401Z,27.23
2022-11-06T23:57:35.145Z,27.38
